Aérodrome :
LOGIN :

S'inscrire | Disclaimer

   EN    FR    IT 

 










Légende :    VFR   VFR Marginal   IFR   IFR Intensif   IFR Très Intensif
Visi : 
Plafond : 
>= 8 km
>= 3000ft
5 à 8 km
1000 à 3000 ft
1500m à 5 km
500 à 1000 ft
800 à 1500m
200 à 500 ft
< 800m
< 200 ft
Symboles :   Orages  Brouillard  Fortes neiges  Fortes précipitations  Vent > 20 kt
SIGMETs :   Divers  Orages  Givrage  Turbulence  Onde Orograph.  Cendres Volcan.







- Altitude de l'aérodrome : 2425 ft


ETHA - Altenstadt Army

DERNIER METAR :
  • 171620Z 25007KT 9999 -SG FEW018 SCT033 BKN050 02/00 Q1024 BLACKBLU BLU TEMPO YLO

METARs EXPIRÉS :
  • 171520Z 26007KT 9999 FEW012 SCT040 BKN160 02/00 Q1023 BLACKBLU BLU TEMPO YLO
  • 171420Z 26010KT 9999 SCT012 SCT045 BKN180 02/00 Q1023 BLACKBLU BLU TEMPO YLO
  • 171320Z 26011KT 9999 FEW011 BKN043 BKN180 02/00 Q1022 BLACKBLU BLU

TAF TAF ETHA
Valide du 17 à 15h jusqu'au 18 à 00h UTC


171420Z 1715/1724 27010KT 9999 NSW BKN040 BKN170
BECMG 1715/1724 27012KT 3000 SN BKN005 BKN010
Pas de NOTAMs connus pour ce terrain.



MET'MAP, la Météo Aéronautique d'un coup d'oeil ! - Copyright ORBIFLY Décembre 2007 - Disclaimer

ORBIFLY MET'MAP TEAM :

Programmation & Développement : Alexandra Zaïnal
Conception & Développement : Baudouin d'Aumeries
Co-Programmation & Développement : Marc-Olivier Méhu
Soutien technique & logistique : Manuel Goepfert

Contact : metmap@orbifly.com




SOURCES & CREDITS :

   NOAA